createdAt,value
2023-02-28T00:01:41.766Z,2.40
2023-02-28T00:04:11.218Z,2.90
2023-02-28T00:06:39.502Z,2.28
2023-02-28T00:09:08.055Z,2.60
2023-02-28T00:11:36.328Z,2.60
2023-02-28T00:14:04.639Z,2.90
2023-02-28T00:16:34.357Z,2.75
2023-02-28T00:19:02.627Z,2.50
2023-02-28T00:21:31.041Z,2.97
2023-02-28T00:23:59.515Z,2.45
2023-02-28T00:26:27.793Z,2.78
2023-02-28T00:28:56.439Z,2.40
2023-02-28T00:31:24.701Z,2.70
2023-02-28T00:33:54.405Z,2.85
2023-02-28T00:36:22.903Z,2.50
2023-02-28T00:38:51.221Z,2.72
2023-02-28T00:41:19.732Z,2.38
2023-02-28T00:43:49.425Z,2.80
2023-02-28T00:46:17.814Z,2.58
2023-02-28T00:48:46.193Z,2.47
2023-02-28T00:51:16.047Z,2.63
2023-02-28T00:53:44.285Z,2.50
2023-02-28T00:56:12.541Z,2.60
2023-02-28T00:58:40.978Z,2.80
2023-02-28T01:01:09.553Z,2.60
2023-02-28T01:03:40.397Z,2.60
2023-02-28T01:06:08.989Z,2.65
2023-02-28T01:08:38.536Z,2.72
2023-02-28T01:11:11.491Z,2.63
2023-02-28T01:13:42.381Z,2.72
2023-02-28T01:16:10.706Z,2.70
2023-02-28T01:18:39.774Z,2.58
2023-02-28T01:21:08.177Z,2.50
2023-02-28T01:23:37.812Z,2.45
2023-02-28T01:26:07.233Z,2.72
2023-02-28T01:28:35.773Z,2.45
2023-02-28T01:31:04.593Z,2.63
2023-02-28T01:33:32.912Z,2.47
2023-02-28T01:36:01.875Z,2.72
2023-02-28T01:38:31.902Z,3.03
2023-02-28T01:41:01.808Z,2.63
2023-02-28T01:43:32.164Z,2.92
2023-02-28T01:46:01.581Z,2.63
2023-02-28T01:48:33.481Z,2.38
2023-02-28T01:51:05.365Z,2.72
2023-02-28T01:53:38.130Z,2.75
2023-02-28T01:56:10.589Z,2.60
2023-02-28T01:58:42.088Z,2.88
2023-02-28T02:03:38.658Z,2.53
2023-02-28T02:06:07.314Z,2.97
2023-02-28T02:08:39.216Z,2.67
2023-02-28T02:11:13.881Z,2.97
2023-02-28T02:14:11.596Z,2.70
2023-02-28T02:16:52.142Z,2.83
2023-02-28T02:19:55.817Z,3.15
2023-02-28T02:22:47.521Z,2.90
2023-02-28T02:25:29.919Z,2.97
2023-02-28T02:28:30.006Z,2.85
2023-02-28T02:31:34.453Z,2.92
2023-02-28T02:34:29.117Z,3.28
2023-02-28T02:37:10.940Z,2.92
2023-02-28T02:39:51.101Z,2.70
2023-02-28T02:42:27.817Z,3.30
2023-02-28T02:45:02.195Z,2.55
2023-02-28T02:47:33.041Z,3.00
2023-02-28T02:50:07.514Z,2.65
2023-02-28T02:52:41.297Z,3.20
2023-02-28T02:55:13.119Z,3.13
2023-02-28T02:57:48.103Z,3.42
2023-02-28T03:00:20.571Z,2.97
2023-02-28T03:02:50.914Z,3.60
2023-02-28T03:05:23.955Z,3.10
2023-02-28T03:07:52.344Z,3.05
2023-02-28T03:10:33.798Z,2.65
2023-02-28T03:13:21.646Z,3.03
2023-02-28T03:16:21.284Z,3.17
2023-02-28T03:18:56.969Z,3.03
2023-02-28T03:21:34.914Z,2.92
2023-02-28T03:24:09.254Z,3.08
2023-02-28T03:26:44.898Z,3.10
2023-02-28T03:29:19.255Z,3.22
2023-02-28T03:31:53.873Z,3.08
2023-02-28T03:34:31.132Z,3.30
2023-02-28T03:37:05.981Z,3.42
2023-02-28T03:39:41.501Z,3.10
2023-02-28T03:42:13.804Z,3.53
2023-02-28T03:44:45.248Z,3.67
2023-02-28T03:47:17.110Z,3.20
2023-02-28T03:49:49.961Z,3.38
2023-02-28T03:52:24.880Z,3.75
2023-02-28T03:54:56.693Z,3.33
2023-02-28T03:57:31.998Z,3.80
2023-02-28T04:00:05.266Z,3.30
2023-02-28T04:02:40.773Z,3.60
2023-02-28T04:05:09.984Z,3.50
2023-02-28T04:07:39.900Z,3.88
2023-02-28T04:10:09.399Z,3.83
2023-02-28T04:12:37.542Z,3.78
2023-02-28T04:15:06.780Z,3.53
2023-02-28T04:17:34.982Z,3.97
2023-02-28T04:20:03.869Z,3.53
2023-02-28T04:22:32.355Z,4.03
2023-02-28T04:25:02.012Z,3.90
2023-02-28T04:27:32.480Z,4.30
2023-02-28T04:30:01.111Z,4.07
2023-02-28T04:32:29.341Z,4.07
2023-02-28T04:34:57.789Z,4.38
2023-02-28T04:37:29.779Z,4.03
2023-02-28T04:39:58.068Z,4.63
2023-02-28T04:42:27.687Z,4.70
2023-02-28T04:44:55.913Z,4.30
2023-02-28T04:47:24.115Z,4.43
2023-02-28T04:49:52.344Z,4.38
2023-02-28T04:52:21.038Z,4.95
2023-02-28T04:54:49.286Z,4.60
2023-02-28T04:57:17.645Z,5.13
2023-02-28T04:59:47.197Z,4.90
2023-02-28T05:02:15.866Z,4.57
2023-02-28T05:04:44.354Z,4.55
2023-02-28T05:07:12.555Z,5.00
2023-02-28T05:09:40.870Z,5.05
2023-02-28T05:12:10.867Z,5.43
2023-02-28T05:14:39.019Z,5.43
2023-02-28T05:17:08.601Z,4.80
2023-02-28T05:19:36.834Z,5.82
2023-02-28T05:22:05.061Z,5.57
2023-02-28T05:24:33.691Z,5.50
2023-02-28T05:27:02.116Z,5.65
2023-02-28T05:29:30.366Z,5.88
2023-02-28T05:31:58.646Z,6.43
2023-02-28T05:34:28.321Z,6.43
2023-02-28T05:36:56.744Z,5.72
2023-02-28T05:39:24.930Z,5.65
2023-02-28T05:41:53.122Z,7.00
2023-02-28T05:44:21.373Z,5.57
2023-02-28T05:46:50.465Z,6.43
2023-02-28T05:49:18.838Z,6.47
2023-02-28T05:51:48.416Z,6.80
2023-02-28T05:54:16.719Z,6.13
2023-02-28T06:00:33.313Z,6.70
2023-02-28T06:03:03.150Z,6.85
2023-02-28T06:05:31.480Z,6.95
2023-02-28T06:08:01.391Z,7.15
2023-02-28T06:10:29.671Z,7.72
2023-02-28T06:12:57.871Z,7.47
2023-02-28T06:15:27.068Z,8.10
2023-02-28T06:17:57.202Z,8.32
2023-02-28T06:20:27.109Z,8.00
2023-02-28T06:22:56.941Z,8.23
2023-02-28T06:25:26.735Z,8.35
2023-02-28T06:27:55.654Z,8.35
2023-02-28T06:30:26.283Z,8.38
2023-02-28T06:32:54.802Z,7.80
2023-02-28T06:35:23.432Z,8.05
2023-02-28T06:37:51.775Z,8.88
2023-02-28T06:40:20.135Z,8.68
2023-02-28T06:42:49.685Z,9.32
2023-02-28T06:45:17.989Z,8.68
2023-02-28T06:47:46.366Z,8.88
2023-02-28T06:50:15.006Z,9.32
2023-02-28T06:52:43.215Z,9.30
2023-02-28T06:55:11.818Z,9.40
2023-02-28T06:57:40.177Z,8.95
2023-02-28T07:00:11.813Z,8.98
2023-02-28T07:02:40.398Z,10.10
2023-02-28T07:05:09.188Z,9.70
2023-02-28T07:07:39.488Z,9.82
2023-02-28T07:10:08.554Z,9.60
2023-02-28T07:12:38.228Z,9.70
2023-02-28T07:15:07.574Z,9.73
2023-02-28T07:17:37.166Z,9.30
2023-02-28T07:20:06.152Z,9.65
2023-02-28T07:22:34.400Z,9.20
2023-02-28T07:25:02.797Z,9.85
2023-02-28T07:27:31.052Z,9.93
2023-02-28T07:30:02.534Z,9.57
2023-02-28T07:35:00.243Z,9.43
2023-02-28T07:37:28.449Z,9.82
2023-02-28T07:39:56.697Z,9.82
2023-02-28T07:42:25.113Z,9.93
2023-02-28T07:44:54.433Z,10.23
2023-02-28T07:47:25.335Z,10.48
2023-02-28T07:49:53.755Z,9.90
2023-02-28T07:52:24.566Z,10.05
2023-02-28T07:54:53.342Z,10.27
2023-02-28T07:57:21.576Z,9.60
2023-02-28T07:59:49.854Z,9.88
2023-02-28T08:02:19.695Z,10.02
2023-02-28T08:04:48.998Z,9.38
2023-02-28T08:07:17.767Z,10.02
2023-02-28T08:09:47.480Z,10.30
2023-02-28T08:12:15.965Z,10.57
2023-02-28T08:14:44.219Z,9.80
2023-02-28T08:17:13.348Z,9.55
2023-02-28T08:19:41.595Z,9.65
2023-02-28T08:22:09.850Z,9.80
2023-02-28T08:24:38.189Z,10.15
2023-02-28T08:27:07.786Z,9.93
2023-02-28T08:29:35.980Z,9.95
2023-02-28T08:32:04.261Z,9.95
2023-02-28T08:34:32.670Z,10.57
2023-02-28T08:37:01.369Z,9.77
2023-02-28T08:39:29.597Z,9.73
2023-02-28T08:42:07.278Z,10.10
2023-02-28T08:44:37.535Z,10.52
2023-02-28T08:47:05.842Z,9.93
2023-02-28T08:49:34.444Z,10.57
2023-02-28T08:52:02.781Z,10.18
2023-02-28T08:54:32.471Z,11.32
2023-02-28T08:57:00.893Z,10.40
2023-02-28T08:59:29.239Z,9.93
2023-02-28T09:01:58.875Z,10.30
2023-02-28T09:04:27.195Z,9.95
2023-02-28T09:06:55.512Z,10.00
2023-02-28T09:09:23.737Z,10.63
2023-02-28T09:11:51.983Z,10.60
2023-02-28T09:14:20.810Z,10.52
2023-02-28T09:16:49.142Z,10.50
2023-02-28T09:19:18.764Z,10.20
2023-02-28T09:21:47.012Z,9.48
2023-02-28T09:24:16.356Z,10.00
2023-02-28T09:26:56.281Z,10.38
2023-02-28T09:29:32.611Z,10.70
2023-02-28T09:32:01.125Z,10.38
2023-02-28T09:34:32.364Z,10.38
2023-02-28T09:37:00.627Z,9.90
2023-02-28T09:39:29.729Z,10.63
2023-02-28T09:41:58.810Z,10.35
2023-02-28T09:44:32.534Z,10.60
2023-02-28T09:47:06.614Z,10.57
2023-02-28T09:49:41.548Z,10.82
2023-02-28T09:52:14.734Z,10.35
2023-02-28T09:54:43.230Z,10.63
2023-02-28T09:57:19.484Z,10.55
2023-02-28T09:59:58.688Z,11.30
2023-02-28T10:02:52.856Z,10.63
2023-02-28T10:05:26.749Z,10.90
2023-02-28T10:08:06.133Z,11.10
2023-02-28T10:10:40.467Z,11.25
2023-02-28T10:13:17.963Z,10.88
2023-02-28T10:15:48.648Z,11.32
2023-02-28T10:18:22.775Z,11.23
2023-02-28T10:20:53.615Z,10.75
2023-02-28T10:23:24.394Z,11.35
2023-02-28T10:25:57.199Z,10.65
2023-02-28T10:28:28.583Z,11.75
2023-02-28T10:30:57.494Z,11.00
2023-02-28T10:33:29.759Z,10.77
2023-02-28T10:35:59.970Z,11.02
2023-02-28T10:38:30.959Z,11.02
2023-02-28T10:41:10.586Z,11.60
2023-02-28T10:43:39.774Z,11.25
2023-02-28T10:46:27.146Z,11.88
2023-02-28T10:49:05.549Z,11.57
2023-02-28T10:51:40.235Z,11.07
2023-02-28T10:54:16.727Z,11.13
2023-02-28T10:56:45.105Z,11.20
2023-02-28T10:59:31.206Z,11.00
2023-02-28T11:02:00.119Z,10.93
2023-02-28T11:04:38.883Z,11.00
2023-02-28T11:07:20.761Z,10.65
2023-02-28T11:09:52.238Z,10.95
2023-02-28T11:12:27.781Z,11.20
2023-02-28T11:14:58.729Z,10.55
2023-02-28T11:17:29.830Z,10.68
2023-02-28T11:20:03.716Z,11.10
2023-02-28T11:22:38.706Z,11.05
2023-02-28T11:25:12.617Z,10.57
2023-02-28T11:27:50.531Z,10.88
2023-02-28T11:30:44.115Z,10.60
2023-02-28T11:33:30.490Z,11.52
2023-02-28T11:36:02.589Z,11.30
2023-02-28T11:38:35.604Z,11.05
2023-02-28T11:41:33.025Z,11.10
2023-02-28T11:44:25.340Z,11.02
2023-02-28T11:46:56.645Z,11.57
2023-02-28T11:49:37.023Z,11.65
2023-02-28T11:52:17.542Z,10.98
2023-02-28T11:55:14.300Z,11.55
2023-02-28T11:57:58.268Z,10.70
2023-02-28T12:00:44.354Z,10.60
2023-02-28T12:03:23.964Z,10.75
2023-02-28T12:06:01.146Z,11.15
2023-02-28T12:08:44.478Z,11.18
2023-02-28T12:11:23.013Z,10.30
2023-02-28T12:14:06.055Z,10.05
2023-02-28T12:16:55.342Z,11.63
2023-02-28T12:19:28.627Z,10.18
2023-02-28T12:22:24.436Z,10.30
2023-02-28T12:25:32.629Z,11.18
2023-02-28T12:28:02.550Z,10.48
2023-02-28T12:30:33.082Z,10.77
2023-02-28T12:33:08.246Z,11.88
2023-02-28T12:35:40.884Z,10.93
2023-02-28T12:38:15.042Z,11.27
2023-02-28T12:40:48.336Z,10.57
2023-02-28T12:43:19.977Z,11.07
2023-02-28T12:45:52.397Z,10.63
2023-02-28T12:48:28.050Z,10.80
2023-02-28T12:50:56.800Z,10.98
2023-02-28T12:53:32.677Z,10.80
2023-02-28T12:56:12.108Z,10.63
2023-02-28T12:58:45.210Z,10.50
2023-02-28T13:01:41.152Z,10.02
2023-02-28T13:04:29.411Z,9.65
2023-02-28T13:07:14.959Z,10.05
2023-02-28T13:09:43.682Z,9.85
2023-02-28T13:12:16.354Z,9.75
2023-02-28T13:14:46.038Z,10.13
2023-02-28T13:17:20.136Z,10.60
2023-02-28T13:19:59.873Z,9.90
2023-02-28T13:22:43.466Z,10.02
2023-02-28T13:25:55.709Z,10.40
2023-02-28T13:29:09.292Z,10.10
2023-02-28T13:32:10.581Z,10.45
2023-02-28T13:34:41.736Z,10.07
2023-02-28T13:37:36.623Z,10.23
2023-02-28T13:40:30.378Z,9.63
2023-02-28T13:42:58.654Z,9.60
2023-02-28T13:45:29.182Z,10.43
2023-02-28T13:48:01.520Z,10.10
2023-02-28T13:50:34.934Z,10.35
2023-02-28T13:53:39.608Z,10.48
2023-02-28T13:56:20.815Z,9.95
2023-02-28T13:58:57.599Z,9.35
2023-02-28T14:01:54.928Z,9.55
2023-02-28T14:04:52.689Z,9.32
2023-02-28T14:07:25.370Z,9.00
2023-02-28T14:09:59.589Z,9.30
2023-02-28T14:12:56.649Z,9.77
2023-02-28T14:15:50.319Z,9.45
2023-02-28T14:18:28.536Z,10.30
2023-02-28T14:21:18.486Z,9.52
2023-02-28T14:24:11.496Z,9.65
2023-02-28T14:27:11.326Z,9.55
2023-02-28T14:30:08.031Z,10.05
2023-02-28T14:32:43.966Z,10.98
2023-02-28T14:35:22.757Z,10.35
2023-02-28T14:37:51.458Z,10.43
2023-02-28T14:40:27.441Z,10.23
2023-02-28T14:42:59.098Z,10.25
2023-02-28T14:47:58.599Z,9.32
2023-02-28T14:50:31.192Z,9.95
2023-02-28T14:53:00.904Z,9.73
2023-02-28T14:55:32.675Z,9.15
2023-02-28T14:58:03.892Z,9.27
2023-02-28T15:00:33.336Z,9.57
2023-02-28T15:03:03.813Z,9.07
2023-02-28T15:05:33.738Z,8.57
2023-02-28T15:08:14.204Z,9.88
2023-02-28T15:10:45.855Z,9.85
2023-02-28T15:13:17.076Z,9.32
2023-02-28T15:16:02.016Z,9.63
2023-02-28T15:18:43.000Z,8.68
2023-02-28T15:21:16.306Z,8.57
2023-02-28T15:23:48.938Z,8.95
2023-02-28T15:26:22.657Z,8.93
2023-02-28T15:29:02.215Z,9.35
2023-02-28T15:31:46.773Z,9.20
2023-02-28T15:34:26.477Z,8.45
2023-02-28T15:36:56.879Z,9.23
2023-02-28T15:39:27.958Z,9.40
2023-02-28T15:42:19.905Z,8.63
2023-02-28T15:44:48.555Z,8.95
2023-02-28T15:47:21.114Z,9.07
2023-02-28T15:49:52.743Z,8.70
2023-02-28T15:52:34.088Z,8.73
2023-02-28T15:55:11.186Z,9.30
2023-02-28T15:57:42.181Z,9.07
2023-02-28T16:00:15.565Z,9.25
2023-02-28T16:02:44.364Z,9.43
2023-02-28T16:05:33.265Z,9.00
2023-02-28T16:08:14.592Z,9.48
2023-02-28T16:10:43.255Z,9.73
2023-02-28T16:13:16.232Z,9.73
2023-02-28T16:15:45.894Z,9.85
2023-02-28T16:18:14.611Z,9.93
2023-02-28T16:20:45.494Z,9.20
2023-02-28T16:23:13.882Z,10.73
2023-02-28T16:25:45.783Z,9.63
2023-02-28T16:30:49.240Z,9.63
2023-02-28T16:33:17.578Z,9.40
2023-02-28T16:35:45.870Z,9.63
2023-02-28T16:38:14.066Z,10.43
2023-02-28T16:40:42.638Z,9.43
2023-02-28T16:43:22.134Z,9.40
2023-02-28T16:45:51.945Z,9.77
2023-02-28T16:48:20.147Z,9.60
2023-02-28T16:50:48.390Z,10.05
2023-02-28T16:53:16.704Z,9.98
2023-02-28T16:55:45.280Z,10.45
2023-02-28T16:58:17.127Z,10.50
2023-02-28T17:00:46.891Z,10.85
2023-02-28T17:03:32.818Z,10.68
2023-02-28T17:06:02.188Z,10.35
2023-02-28T17:08:30.819Z,10.95
2023-02-28T17:10:59.189Z,10.40
2023-02-28T17:13:27.470Z,10.60
2023-02-28T17:15:57.208Z,10.73
2023-02-28T17:18:25.659Z,10.73
2023-02-28T17:20:53.909Z,10.07
2023-02-28T17:23:22.177Z,9.93
2023-02-28T17:25:57.806Z,10.18
2023-02-28T17:28:26.485Z,10.35
2023-02-28T17:30:56.120Z,10.20
2023-02-28T17:33:24.389Z,9.77
2023-02-28T17:35:52.783Z,9.90
2023-02-28T17:38:24.006Z,10.65
2023-02-28T17:40:57.960Z,10.05
2023-02-28T17:43:26.733Z,11.40
2023-02-28T17:45:56.824Z,11.73
2023-02-28T17:48:25.032Z,10.77
2023-02-28T17:50:53.304Z,11.43
2023-02-28T17:53:23.997Z,10.80
2023-02-28T17:55:52.551Z,12.20
2023-02-28T17:58:22.167Z,11.48
2023-02-28T18:00:54.868Z,11.68
2023-02-28T18:03:25.242Z,12.98
2023-02-28T18:05:53.788Z,13.48
2023-02-28T18:08:22.062Z,13.40
2023-02-28T18:10:50.506Z,12.77
2023-02-28T18:13:18.662Z,13.23
2023-02-28T18:15:48.443Z,14.55
2023-02-28T18:18:17.287Z,64.32
2023-02-28T18:20:49.437Z,97.80
2023-02-28T18:23:18.428Z,99.93
2023-02-28T18:25:46.640Z,85.10
2023-02-28T18:28:14.820Z,85.20
2023-02-28T18:30:43.237Z,74.15
2023-02-28T18:33:11.458Z,81.60
2023-02-28T18:35:40.046Z,59.75
2023-02-28T18:38:13.890Z,46.78
2023-02-28T18:40:43.249Z,47.45
2023-02-28T18:43:11.474Z,91.28
2023-02-28T18:45:40.451Z,134.27
2023-02-28T18:48:08.733Z,80.22
2023-02-28T18:50:39.106Z,88.95
2023-02-28T18:53:07.451Z,81.63
2023-02-28T18:55:37.648Z,68.55
2023-02-28T18:58:06.129Z,65.70
2023-02-28T19:00:34.584Z,59.15
2023-02-28T19:03:03.024Z,43.30
2023-02-28T19:05:34.372Z,54.42
2023-02-28T19:08:03.174Z,43.97
2023-02-28T19:10:31.417Z,57.50
2023-02-28T19:13:01.565Z,90.60
2023-02-28T19:15:29.884Z,118.45
2023-02-28T19:17:58.095Z,116.75
2023-02-28T19:20:26.412Z,97.80
2023-02-28T19:22:54.679Z,94.03
2023-02-28T19:25:24.085Z,64.90
2023-02-28T19:27:53.781Z,52.67
2023-02-28T19:30:24.970Z,42.55
2023-02-28T19:32:53.248Z,42.28
2023-02-28T19:35:21.518Z,55.92
2023-02-28T19:37:50.734Z,63.33
2023-02-28T19:40:19.351Z,52.03
2023-02-28T19:42:47.624Z,127.40
2023-02-28T19:45:15.970Z,112.65
2023-02-28T19:47:45.701Z,81.63
2023-02-28T19:50:13.908Z,54.40
2023-02-28T19:52:43.359Z,48.30
2023-02-28T19:55:12.187Z,40.75
2023-02-28T19:57:40.437Z,35.85
2023-02-28T20:00:10.127Z,30.90
2023-02-28T20:02:41.547Z,24.70
2023-02-28T20:05:23.327Z,23.23
2023-02-28T20:10:21.062Z,17.02
2023-02-28T20:12:49.298Z,16.73
2023-02-28T20:15:17.745Z,16.50
2023-02-28T20:17:46.845Z,15.80
2023-02-28T20:20:15.225Z,15.40
2023-02-28T20:22:43.469Z,16.40
2023-02-28T20:26:02.004Z,15.55
2023-02-28T20:28:42.025Z,14.77
2023-02-28T20:31:13.927Z,15.00
2023-02-28T20:33:44.396Z,16.10
2023-02-28T20:38:44.292Z,14.43
2023-02-28T20:41:14.723Z,15.23
2023-02-28T20:43:43.455Z,14.73
2023-02-28T20:46:11.784Z,13.90
2023-02-28T20:48:40.723Z,14.02
2023-02-28T20:51:09.233Z,14.75
2023-02-28T20:53:37.662Z,14.20
2023-02-28T20:56:08.963Z,14.00
2023-02-28T20:58:39.364Z,14.25
2023-02-28T21:01:12.817Z,14.10
2023-02-28T21:03:41.258Z,13.95
2023-02-28T21:06:09.470Z,13.10
2023-02-28T21:08:38.867Z,14.07
2023-02-28T21:11:11.313Z,12.80
2023-02-28T21:13:42.219Z,13.35
2023-02-28T21:16:12.009Z,12.95
2023-02-28T21:18:40.688Z,12.90
2023-02-28T21:21:10.756Z,14.13
2023-02-28T21:23:39.412Z,13.77
2023-02-28T21:26:14.104Z,13.82
2023-02-28T21:28:44.946Z,13.63
2023-02-28T21:31:15.759Z,14.63
2023-02-28T21:33:44.578Z,13.60
2023-02-28T21:36:15.582Z,14.70
2023-02-28T21:38:45.322Z,14.30
2023-02-28T21:41:15.035Z,14.13
2023-02-28T21:43:45.399Z,13.65
2023-02-28T21:46:15.975Z,13.65
2023-02-28T21:48:45.094Z,15.68
2023-02-28T21:51:15.105Z,13.90
2023-02-28T21:53:44.118Z,13.45
2023-02-28T21:56:14.874Z,13.85
2023-02-28T21:59:07.129Z,13.77
2023-02-28T22:01:38.011Z,13.55
2023-02-28T22:04:08.040Z,13.15
2023-02-28T22:06:38.250Z,13.05
2023-02-28T22:09:08.717Z,12.90
2023-02-28T22:11:39.070Z,13.02
2023-02-28T22:14:12.326Z,13.52
2023-02-28T22:16:51.407Z,13.02
2023-02-28T22:19:21.519Z,12.10
2023-02-28T22:21:50.374Z,12.80
2023-02-28T22:24:20.721Z,12.85
2023-02-28T22:26:50.220Z,12.18
2023-02-28T22:29:20.000Z,12.52
2023-02-28T22:31:48.529Z,12.73
2023-02-28T22:34:17.062Z,12.77
2023-02-28T22:36:45.321Z,12.80
2023-02-28T22:39:13.832Z,12.88
2023-02-28T22:41:42.080Z,13.10
2023-02-28T22:44:10.386Z,12.85
2023-02-28T22:46:40.295Z,12.23
2023-02-28T22:49:08.723Z,12.07
2023-02-28T22:51:36.997Z,12.52
2023-02-28T22:54:05.776Z,13.48
2023-02-28T22:56:34.388Z,13.20
2023-02-28T22:59:03.097Z,12.27
2023-02-28T23:01:33.927Z,11.77
2023-02-28T23:04:03.890Z,12.43
2023-02-28T23:06:34.564Z,12.68
2023-02-28T23:09:05.849Z,13.65
2023-02-28T23:11:35.557Z,12.55
2023-02-28T23:14:04.177Z,13.07
2023-02-28T23:16:36.222Z,12.57
2023-02-28T23:19:07.480Z,13.25
2023-02-28T23:21:36.476Z,13.05
2023-02-28T23:24:10.600Z,13.63
2023-02-28T23:26:40.171Z,12.10
2023-02-28T23:29:08.935Z,12.35
2023-02-28T23:31:37.648Z,13.15
2023-02-28T23:34:07.751Z,12.80
2023-02-28T23:36:36.074Z,12.57
2023-02-28T23:39:04.404Z,12.73
2023-02-28T23:41:32.903Z,13.43
2023-02-28T23:44:01.172Z,11.90
2023-02-28T23:46:29.677Z,12.70
2023-02-28T23:48:59.338Z,11.75
2023-02-28T23:51:28.955Z,13.60
2023-02-28T23:53:57.114Z,13.40
2023-02-28T23:56:25.965Z,12.70
2023-02-28T23:58:56.346Z,12.57
